createdAt,value
2018-12-27T00:02:07.252Z,7.33
2018-12-27T00:04:36.554Z,7.03
2018-12-27T00:07:05.881Z,9.07
2018-12-27T00:09:35.181Z,8.13
2018-12-27T00:12:04.526Z,7.93
2018-12-27T00:14:33.857Z,5.80
2018-12-27T00:17:03.188Z,5.50
2018-12-27T00:19:32.511Z,6.33
2018-12-27T00:22:01.837Z,5.10
2018-12-27T00:24:31.123Z,5.17
2018-12-27T00:27:00.474Z,5.30
2018-12-27T00:29:29.843Z,5.73
2018-12-27T00:31:59.321Z,6.33
2018-12-27T00:34:28.815Z,5.50
2018-12-27T00:36:58.298Z,4.90
2018-12-27T00:39:27.737Z,4.83
2018-12-27T00:41:57.200Z,6.93
2018-12-27T00:44:26.691Z,5.57
2018-12-27T00:46:56.126Z,5.30
2018-12-27T00:49:25.559Z,5.13
2018-12-27T00:51:55.025Z,6.10
2018-12-27T00:54:24.678Z,5.67
2018-12-27T00:56:54.107Z,7.23
2018-12-27T00:59:23.574Z,6.47
2018-12-27T01:01:53.038Z,7.03
2018-12-27T01:04:22.475Z,5.93
2018-12-27T01:06:51.951Z,5.00
2018-12-27T01:09:21.428Z,5.53
2018-12-27T01:11:50.882Z,5.40
2018-12-27T01:14:20.351Z,6.43
2018-12-27T01:16:49.811Z,6.03
2018-12-27T01:19:19.257Z,5.20
2018-12-27T01:21:48.773Z,6.63
2018-12-27T01:24:18.246Z,5.07
2018-12-27T01:26:47.692Z,6.13
2018-12-27T01:29:17.244Z,5.97
2018-12-27T01:31:50.567Z,5.57
2018-12-27T01:34:17.870Z,5.20
2018-12-27T01:36:47.351Z,8.07
2018-12-27T01:39:16.793Z,6.00
2018-12-27T01:41:46.277Z,5.07
2018-12-27T01:44:15.718Z,6.03
2018-12-27T01:46:45.181Z,5.93
2018-12-27T01:49:14.617Z,6.27
2018-12-27T01:51:44.176Z,5.33
2018-12-27T01:54:13.530Z,6.80
2018-12-27T01:56:42.971Z,6.00
2018-12-27T01:59:12.478Z,5.97
2018-12-27T02:01:41.947Z,6.00
2018-12-27T02:04:11.376Z,6.33
2018-12-27T02:06:40.919Z,5.00
2018-12-27T02:09:10.428Z,4.97
2018-12-27T02:11:39.872Z,5.73
2018-12-27T02:14:09.328Z,6.10
2018-12-27T02:16:38.772Z,5.63
2018-12-27T02:19:08.214Z,5.70
2018-12-27T02:21:37.670Z,6.13
2018-12-27T02:24:07.118Z,6.07
2018-12-27T02:26:36.774Z,5.00
2018-12-27T02:29:06.234Z,6.10
2018-12-27T02:31:37.169Z,5.90
2018-12-27T02:34:06.769Z,5.97
2018-12-27T02:36:36.215Z,6.80
2018-12-27T02:39:07.365Z,5.63
2018-12-27T02:41:36.777Z,5.13
2018-12-27T02:44:06.276Z,7.43
2018-12-27T02:46:35.718Z,6.00
2018-12-27T02:49:05.138Z,6.67
2018-12-27T02:51:34.614Z,5.57
2018-12-27T02:54:04.062Z,6.93
2018-12-27T02:56:33.513Z,5.93
2018-12-27T02:59:03.006Z,6.07
2018-12-27T03:01:32.484Z,6.17
2018-12-27T03:04:01.970Z,5.90
2018-12-27T03:06:31.457Z,5.03
2018-12-27T03:09:00.913Z,6.97
2018-12-27T03:11:30.408Z,7.60
2018-12-27T03:13:59.849Z,6.60
2018-12-27T03:16:29.295Z,5.83
2018-12-27T03:18:58.778Z,5.73
2018-12-27T03:21:28.247Z,5.57
2018-12-27T03:23:57.745Z,5.53
2018-12-27T03:26:27.222Z,8.00
2018-12-27T03:28:56.670Z,5.37
2018-12-27T03:31:26.169Z,6.03
2018-12-27T03:33:55.625Z,5.33
2018-12-27T03:36:25.106Z,6.37
2018-12-27T03:38:54.547Z,6.60
2018-12-27T03:41:23.999Z,6.60
2018-12-27T03:43:53.446Z,7.20
2018-12-27T03:46:22.937Z,6.03
2018-12-27T03:48:52.418Z,8.27
2018-12-27T03:51:21.873Z,7.47
2018-12-27T03:53:51.368Z,8.47
2018-12-27T03:56:20.807Z,6.33
2018-12-27T03:58:50.245Z,8.17
2018-12-27T04:01:19.756Z,6.37
2018-12-27T04:03:49.205Z,6.90
2018-12-27T04:06:18.675Z,6.67
2018-12-27T04:08:48.130Z,6.57
2018-12-27T04:11:17.574Z,8.00
2018-12-27T04:13:47.023Z,6.40
2018-12-27T04:16:16.296Z,7.03
2018-12-27T04:18:45.746Z,5.90
2018-12-27T04:21:15.024Z,6.23
2018-12-27T04:23:44.449Z,8.50
2018-12-27T04:26:14.655Z,7.67
2018-12-27T04:28:43.979Z,8.27
2018-12-27T04:31:13.666Z,7.57
2018-12-27T04:33:43.477Z,5.77
2018-12-27T04:36:13.324Z,7.37
2018-12-27T04:38:42.685Z,8.17
2018-12-27T04:41:11.996Z,7.60
2018-12-27T04:43:41.492Z,8.83
2018-12-27T04:46:10.836Z,6.73
2018-12-27T04:48:40.177Z,8.70
2018-12-27T04:51:09.497Z,8.27
2018-12-27T04:53:38.807Z,7.10
2018-12-27T04:56:08.137Z,12.17
2018-12-27T04:58:37.503Z,9.53
2018-12-27T05:01:06.841Z,8.67
2018-12-27T05:03:36.170Z,10.20
2018-12-27T05:06:05.474Z,9.10
2018-12-27T05:08:34.883Z,9.43
2018-12-27T05:11:04.299Z,9.03
2018-12-27T05:13:33.629Z,9.57
2018-12-27T05:16:02.963Z,12.60
2018-12-27T05:18:32.295Z,12.40
2018-12-27T05:21:01.599Z,9.50
2018-12-27T05:23:30.917Z,10.63
2018-12-27T05:26:00.228Z,10.27
2018-12-27T05:28:29.524Z,9.97
2018-12-27T05:30:58.930Z,8.77
2018-12-27T05:33:28.254Z,11.13
2018-12-27T05:35:57.636Z,10.70
2018-12-27T05:38:26.954Z,10.20
2018-12-27T05:40:56.290Z,8.67
2018-12-27T05:43:25.647Z,12.03
2018-12-27T05:45:54.981Z,8.00
2018-12-27T05:48:24.336Z,9.83
2018-12-27T05:50:53.710Z,10.30
2018-12-27T05:53:23.082Z,11.57
2018-12-27T05:55:52.428Z,9.97
2018-12-27T05:58:21.737Z,9.83
2018-12-27T06:00:51.176Z,10.43
2018-12-27T06:03:20.494Z,10.90
2018-12-27T06:05:49.793Z,12.33
2018-12-27T06:08:19.162Z,10.10
2018-12-27T06:10:48.498Z,10.32
2018-12-27T06:13:17.840Z,12.93
2018-12-27T06:15:47.199Z,12.98
2018-12-27T06:18:16.547Z,13.60
2018-12-27T06:20:45.898Z,10.73
2018-12-27T06:23:15.244Z,10.77
2018-12-27T06:25:44.598Z,11.83
2018-12-27T06:28:13.908Z,12.23
2018-12-27T06:30:43.316Z,10.53
2018-12-27T06:33:12.642Z,14.57
2018-12-27T06:35:41.946Z,11.97
2018-12-27T06:38:11.263Z,9.73
2018-12-27T06:40:40.598Z,12.63
2018-12-27T06:43:09.956Z,14.17
2018-12-27T06:45:39.307Z,10.83
2018-12-27T06:48:08.809Z,11.23
2018-12-27T06:50:38.164Z,12.47
2018-12-27T06:53:07.515Z,14.47
2018-12-27T06:55:36.850Z,14.37
2018-12-27T06:58:06.195Z,13.70
2018-12-27T07:00:35.667Z,13.80
2018-12-27T07:03:04.964Z,12.53
2018-12-27T07:05:34.247Z,10.90
2018-12-27T07:08:03.632Z,15.23
2018-12-27T07:10:32.988Z,14.90
2018-12-27T07:13:02.331Z,14.67
2018-12-27T07:15:31.782Z,16.77
2018-12-27T07:18:01.215Z,14.90
2018-12-27T07:20:30.524Z,17.13
2018-12-27T07:22:59.901Z,13.83
2018-12-27T07:25:29.241Z,15.00
2018-12-27T07:27:58.575Z,13.33
2018-12-27T07:30:28.106Z,13.23
2018-12-27T07:32:57.456Z,13.30
2018-12-27T07:35:26.898Z,10.57
2018-12-27T07:37:56.221Z,13.13
2018-12-27T07:40:25.681Z,13.27
2018-12-27T07:42:55.039Z,14.93
2018-12-27T07:45:24.351Z,13.07
2018-12-27T07:47:53.678Z,13.73
2018-12-27T07:50:23.089Z,16.57
2018-12-27T07:52:52.487Z,14.73
2018-12-27T07:55:23.783Z,15.50
2018-12-27T07:57:53.064Z,14.53
2018-12-27T08:00:22.498Z,15.00
2018-12-27T08:02:52.001Z,18.23
2018-12-27T08:05:21.341Z,16.97
2018-12-27T08:07:50.707Z,13.93
2018-12-27T08:10:20.015Z,15.07
2018-12-27T08:12:49.418Z,14.03
2018-12-27T08:15:18.761Z,17.57
2018-12-27T08:17:48.075Z,16.00
2018-12-27T08:20:17.427Z,14.30
2018-12-27T08:22:46.918Z,20.13
2018-12-27T08:25:17.347Z,16.40
2018-12-27T08:27:46.647Z,14.13
2018-12-27T08:30:16.050Z,14.33
2018-12-27T08:32:45.361Z,15.73
2018-12-27T08:35:14.737Z,13.23
2018-12-27T08:37:44.045Z,15.60
2018-12-27T08:40:13.390Z,13.83
2018-12-27T08:42:42.734Z,14.27
2018-12-27T08:45:12.043Z,13.03
2018-12-27T08:47:41.367Z,14.53
2018-12-27T08:50:10.665Z,20.93
2018-12-27T08:52:40.057Z,17.47
2018-12-27T08:55:09.402Z,12.27
2018-12-27T08:57:38.733Z,17.67
2018-12-27T09:00:08.289Z,14.87
2018-12-27T09:02:37.615Z,12.57
2018-12-27T09:05:07.597Z,15.83
2018-12-27T09:07:36.972Z,14.13
2018-12-27T09:10:06.779Z,20.73
2018-12-27T09:12:36.256Z,14.70
2018-12-27T09:15:05.560Z,15.73
2018-12-27T09:17:35.129Z,14.43
2018-12-27T09:20:04.885Z,14.10
2018-12-27T09:22:34.241Z,17.40
2018-12-27T09:25:04.081Z,13.13
2018-12-27T09:27:35.418Z,15.00
2018-12-27T09:30:06.945Z,16.17
2018-12-27T09:32:36.345Z,16.27
2018-12-27T09:35:06.093Z,13.57
2018-12-27T09:37:35.435Z,20.17
2018-12-27T09:40:04.916Z,14.57
2018-12-27T09:42:34.417Z,17.13
2018-12-27T09:45:03.743Z,16.67
2018-12-27T09:47:32.988Z,14.27
2018-12-27T09:50:02.374Z,14.50
2018-12-27T09:52:31.869Z,15.60
2018-12-27T09:55:01.232Z,11.73
2018-12-27T09:57:30.592Z,23.67
2018-12-27T09:59:59.926Z,11.40
2018-12-27T10:02:29.235Z,12.23
2018-12-27T10:04:58.699Z,13.27
2018-12-27T10:07:28.012Z,13.53
2018-12-27T10:09:57.363Z,17.60
2018-12-27T10:12:26.792Z,17.30
2018-12-27T10:14:56.175Z,14.23
2018-12-27T10:17:25.502Z,15.60
2018-12-27T10:19:54.844Z,12.47
2018-12-27T10:22:24.307Z,13.80
2018-12-27T10:24:53.633Z,14.97
2018-12-27T10:27:22.957Z,16.13
2018-12-27T10:29:52.353Z,15.33
2018-12-27T10:32:22.018Z,17.97
2018-12-27T10:34:51.381Z,17.10
2018-12-27T10:37:20.709Z,15.93
2018-12-27T10:39:53.564Z,14.43
2018-12-27T10:42:22.950Z,16.07
2018-12-27T10:44:52.270Z,16.60
2018-12-27T10:47:21.575Z,15.53
2018-12-27T10:49:50.966Z,13.13
2018-12-27T10:52:20.273Z,13.97
2018-12-27T10:54:49.666Z,15.70
2018-12-27T10:57:19.161Z,12.97
2018-12-27T10:59:48.619Z,15.40
2018-12-27T11:02:17.953Z,14.33
2018-12-27T11:04:47.297Z,15.67
2018-12-27T11:07:16.711Z,15.37
2018-12-27T11:09:46.491Z,21.80
2018-12-27T11:12:15.967Z,15.73
2018-12-27T11:14:45.361Z,15.37
2018-12-27T11:17:14.692Z,14.93
2018-12-27T11:19:44.012Z,15.40
2018-12-27T11:22:13.634Z,18.80
2018-12-27T11:24:42.934Z,16.93
2018-12-27T11:27:12.358Z,16.00
2018-12-27T11:29:41.706Z,16.10
2018-12-27T11:32:11.031Z,17.63
2018-12-27T11:34:40.512Z,15.70
2018-12-27T11:37:09.862Z,17.57
2018-12-27T11:39:39.218Z,17.57
2018-12-27T11:42:08.579Z,17.20
2018-12-27T11:44:37.948Z,22.23
2018-12-27T11:47:07.298Z,17.93
2018-12-27T11:49:36.610Z,18.00
2018-12-27T11:52:05.959Z,17.07
2018-12-27T11:54:35.291Z,19.50
2018-12-27T11:57:04.660Z,17.10
2018-12-27T11:59:34.026Z,18.80
2018-12-27T12:02:03.380Z,16.73
2018-12-27T12:04:32.745Z,15.50
2018-12-27T12:07:02.100Z,15.37
2018-12-27T12:09:31.493Z,16.40
2018-12-27T12:12:00.925Z,19.67
2018-12-27T12:14:30.263Z,16.33
2018-12-27T12:16:59.700Z,16.67
2018-12-27T12:19:29.085Z,16.27
2018-12-27T12:21:58.422Z,16.23
2018-12-27T12:24:27.743Z,17.47
2018-12-27T12:26:57.084Z,16.97
2018-12-27T12:29:26.449Z,17.50
2018-12-27T12:31:55.789Z,15.93
2018-12-27T12:34:25.220Z,16.67
2018-12-27T12:36:54.963Z,17.40
2018-12-27T12:39:24.642Z,16.40
2018-12-27T12:41:53.977Z,17.97
2018-12-27T12:44:23.331Z,16.70
2018-12-27T12:46:53.165Z,17.20
2018-12-27T12:49:22.560Z,15.90
2018-12-27T12:51:51.937Z,15.40
2018-12-27T12:54:21.278Z,16.43
2018-12-27T12:56:50.642Z,13.97
2018-12-27T12:59:20.082Z,14.83
2018-12-27T13:01:49.449Z,16.23
2018-12-27T13:04:18.817Z,16.50
2018-12-27T13:06:48.156Z,18.77
2018-12-27T13:09:17.514Z,15.37
2018-12-27T13:11:46.882Z,17.93
2018-12-27T13:14:16.215Z,22.00
2018-12-27T13:16:45.570Z,18.40
2018-12-27T13:19:14.921Z,19.40
2018-12-27T13:21:44.395Z,11.97
2018-12-27T13:24:13.763Z,14.63
2018-12-27T13:26:43.120Z,17.30
2018-12-27T13:29:12.451Z,12.63
2018-12-27T13:31:41.837Z,15.80
2018-12-27T13:34:11.297Z,15.27
2018-12-27T13:36:40.706Z,16.10
2018-12-27T13:39:10.085Z,16.13
2018-12-27T13:41:39.452Z,14.80
2018-12-27T13:44:08.754Z,17.40
2018-12-27T13:46:38.125Z,13.67
2018-12-27T13:49:07.605Z,14.83
2018-12-27T13:51:36.927Z,14.77
2018-12-27T13:54:06.299Z,16.27
2018-12-27T13:56:35.607Z,14.13
2018-12-27T13:59:04.966Z,14.47
2018-12-27T14:01:34.298Z,16.20
2018-12-27T14:04:03.650Z,14.83
2018-12-27T14:06:33.058Z,17.33
2018-12-27T14:09:02.458Z,15.47
2018-12-27T14:11:31.816Z,15.43
2018-12-27T14:14:01.198Z,16.03
2018-12-27T14:16:30.570Z,15.43
2018-12-27T14:18:59.910Z,15.40
2018-12-27T14:21:29.362Z,16.67
2018-12-27T14:23:58.699Z,16.27
2018-12-27T14:26:28.047Z,18.23
2018-12-27T14:28:57.357Z,15.53
2018-12-27T14:31:26.704Z,17.03
2018-12-27T14:33:56.062Z,17.10
2018-12-27T14:36:25.493Z,15.07
2018-12-27T14:38:54.888Z,20.93
2018-12-27T14:41:24.243Z,18.13
2018-12-27T14:43:53.666Z,17.03
2018-12-27T14:46:23.057Z,17.93
2018-12-27T14:48:52.382Z,16.90
2018-12-27T14:51:21.738Z,18.53
2018-12-27T14:53:51.085Z,16.27
2018-12-27T14:56:20.428Z,17.20
2018-12-27T14:58:49.842Z,17.33
2018-12-27T15:01:19.215Z,17.73
2018-12-27T15:03:48.523Z,16.87
2018-12-27T15:06:17.835Z,16.83
2018-12-27T15:08:47.205Z,17.13
2018-12-27T15:11:16.542Z,16.57
2018-12-27T15:13:45.888Z,17.87
2018-12-27T15:16:15.248Z,16.63
2018-12-27T15:18:44.615Z,17.03
2018-12-27T15:21:13.953Z,17.90
2018-12-27T15:23:43.311Z,18.43
2018-12-27T15:26:12.648Z,17.43
2018-12-27T15:28:41.989Z,18.67
2018-12-27T15:31:11.313Z,15.27
2018-12-27T15:33:40.640Z,16.00
2018-12-27T15:36:09.982Z,16.40
2018-12-27T15:38:39.326Z,19.53
2018-12-27T15:41:08.726Z,15.63
2018-12-27T15:43:38.069Z,17.37
2018-12-27T15:46:07.561Z,19.23
2018-12-27T15:48:36.948Z,20.43
2018-12-27T15:51:06.310Z,19.57
2018-12-27T15:53:35.711Z,16.20
2018-12-27T15:56:05.083Z,17.00
2018-12-27T15:58:34.547Z,20.43
2018-12-27T16:01:03.983Z,19.23
2018-12-27T16:03:33.473Z,19.83
2018-12-27T16:06:02.838Z,18.20
2018-12-27T16:08:32.282Z,17.33
2018-12-27T16:11:01.662Z,15.90
2018-12-27T16:13:31.042Z,15.10
2018-12-27T16:16:00.385Z,14.30
2018-12-27T16:18:29.783Z,14.27
2018-12-27T16:20:59.149Z,14.00
2018-12-27T16:23:31.384Z,16.40
2018-12-27T16:26:00.743Z,14.87
2018-12-27T16:28:30.080Z,16.87
2018-12-27T16:30:59.449Z,17.63
2018-12-27T16:33:28.826Z,17.27
2018-12-27T16:35:58.169Z,18.37
2018-12-27T16:38:27.571Z,16.30
2018-12-27T16:40:56.922Z,17.30
2018-12-27T16:43:26.334Z,17.30
2018-12-27T16:45:55.737Z,15.93
2018-12-27T16:48:26.906Z,19.67
2018-12-27T16:50:56.236Z,15.33
2018-12-27T16:53:25.597Z,13.70
2018-12-27T16:55:54.973Z,16.73
2018-12-27T16:58:24.314Z,17.13
2018-12-27T17:00:53.655Z,16.43
2018-12-27T17:03:23.064Z,21.53
2018-12-27T17:05:52.439Z,18.40
2018-12-27T17:08:21.823Z,28.80
2018-12-27T17:10:56.171Z,16.23
2018-12-27T17:13:25.584Z,17.73
2018-12-27T17:15:54.930Z,15.03
2018-12-27T17:18:24.537Z,17.87
2018-12-27T17:20:53.870Z,15.37
2018-12-27T17:23:23.191Z,21.90
2018-12-27T17:25:52.551Z,18.47
2018-12-27T17:28:21.955Z,16.13
2018-12-27T17:30:51.318Z,15.70
2018-12-27T17:33:20.641Z,15.27
2018-12-27T17:35:49.949Z,16.73
2018-12-27T17:38:19.371Z,17.70
2018-12-27T17:40:48.690Z,16.70
2018-12-27T17:43:19.125Z,14.27
2018-12-27T17:45:48.761Z,13.87
2018-12-27T17:48:18.126Z,14.77
2018-12-27T17:50:47.489Z,15.27
2018-12-27T17:53:16.950Z,13.37
2018-12-27T17:55:46.697Z,14.97
2018-12-27T17:58:16.030Z,14.57
2018-12-27T18:00:45.388Z,15.47
2018-12-27T18:03:14.717Z,15.93
2018-12-27T18:05:44.018Z,13.33
2018-12-27T18:08:13.324Z,16.83
2018-12-27T18:10:42.689Z,11.80
2018-12-27T18:13:12.024Z,15.03
2018-12-27T18:15:41.361Z,14.47
2018-12-27T18:18:10.733Z,12.70
2018-12-27T18:20:40.070Z,14.30
2018-12-27T18:23:09.975Z,14.93
2018-12-27T18:25:39.326Z,15.03
2018-12-27T18:28:08.632Z,16.67
2018-12-27T18:30:37.981Z,11.87
2018-12-27T18:33:07.332Z,11.97
2018-12-27T18:35:36.642Z,12.97
2018-12-27T18:38:05.987Z,12.93
2018-12-27T18:40:35.295Z,13.37
2018-12-27T18:43:04.655Z,14.97
2018-12-27T18:45:34.029Z,12.77
2018-12-27T18:48:03.430Z,14.27
2018-12-27T18:50:33.097Z,13.70
2018-12-27T18:53:02.481Z,11.73
2018-12-27T18:55:34.539Z,13.87
2018-12-27T18:58:04.306Z,11.80
2018-12-27T19:00:33.665Z,12.13
2018-12-27T19:03:02.976Z,14.57
2018-12-27T19:05:34.160Z,13.97
2018-12-27T19:08:03.862Z,11.33
2018-12-27T19:10:33.170Z,11.33
2018-12-27T19:13:09.695Z,16.27
2018-12-27T19:15:45.559Z,14.00
2018-12-27T19:18:24.947Z,16.27
2018-12-27T19:20:59.407Z,14.10
2018-12-27T19:23:29.692Z,15.33
2018-12-27T19:25:59.037Z,14.73
2018-12-27T19:28:28.431Z,10.87
2018-12-27T19:30:57.806Z,67.17
2018-12-27T19:33:27.179Z,10.60
2018-12-27T19:35:56.552Z,12.43
2018-12-27T19:38:26.771Z,10.80
2018-12-27T19:40:56.578Z,15.27
2018-12-27T19:43:26.597Z,13.93
2018-12-27T19:46:05.690Z,13.27
2018-12-27T19:48:34.976Z,17.20
2018-12-27T19:51:04.306Z,14.67
2018-12-27T19:53:33.648Z,18.77
2018-12-27T19:56:03.079Z,16.77
2018-12-27T19:58:32.451Z,13.87
2018-12-27T20:01:04.126Z,13.27
2018-12-27T20:03:33.514Z,16.30
2018-12-27T20:06:03.065Z,15.40
2018-12-27T20:08:32.388Z,12.20
2018-12-27T20:11:04.408Z,12.20
2018-12-27T20:13:33.799Z,15.37
2018-12-27T20:16:14.122Z,10.10
2018-12-27T20:19:03.643Z,13.07
2018-12-27T20:21:34.540Z,10.23
2018-12-27T20:24:03.986Z,11.07
2018-12-27T20:26:33.333Z,11.83
2018-12-27T20:29:02.882Z,9.47
2018-12-27T20:31:32.266Z,11.00
2018-12-27T20:34:01.655Z,10.50
2018-12-27T20:36:31.021Z,10.73
2018-12-27T20:39:01.026Z,10.47
2018-12-27T20:41:30.364Z,9.97
2018-12-27T20:43:59.775Z,11.07
2018-12-27T20:46:30.432Z,8.40
2018-12-27T20:48:59.851Z,11.23
2018-12-27T20:51:29.214Z,15.30
2018-12-27T20:53:58.582Z,7.73
2018-12-27T20:56:28.007Z,9.50
2018-12-27T20:58:57.453Z,9.20
2018-12-27T21:01:26.812Z,10.07
2018-12-27T21:03:56.190Z,10.70
2018-12-27T21:06:25.578Z,10.47
2018-12-27T21:08:54.895Z,11.07
2018-12-27T21:11:24.214Z,8.63
2018-12-27T21:13:53.871Z,9.50
2018-12-27T21:16:23.194Z,10.80
2018-12-27T21:18:52.589Z,8.90
2018-12-27T21:21:21.991Z,8.67
2018-12-27T21:23:51.991Z,6.80
2018-12-27T21:26:21.453Z,7.00
2018-12-27T21:28:50.864Z,7.77
2018-12-27T21:31:20.378Z,7.37
2018-12-27T21:33:49.726Z,8.40
2018-12-27T21:36:19.065Z,10.93
2018-12-27T21:38:48.407Z,9.27
2018-12-27T21:41:17.796Z,8.83
2018-12-27T21:43:47.132Z,7.93
2018-12-27T21:46:16.436Z,6.67
2018-12-27T21:48:45.783Z,10.23
2018-12-27T21:51:15.135Z,8.20
2018-12-27T21:53:44.547Z,7.53
2018-12-27T21:56:13.835Z,6.70
2018-12-27T21:58:43.136Z,7.43
2018-12-27T22:01:12.627Z,8.13
2018-12-27T22:03:41.981Z,8.13
2018-12-27T22:06:11.321Z,6.27
2018-12-27T22:08:41.034Z,8.53
2018-12-27T22:11:10.432Z,6.67
2018-12-27T22:13:39.768Z,6.77
2018-12-27T22:16:09.314Z,6.60
2018-12-27T22:18:38.596Z,6.80
2018-12-27T22:21:07.921Z,8.23
2018-12-27T22:23:37.599Z,5.97
2018-12-27T22:26:06.893Z,6.60
2018-12-27T22:28:36.278Z,5.83
2018-12-27T22:31:05.614Z,7.70
2018-12-27T22:33:35.016Z,8.37
2018-12-27T22:36:04.371Z,6.83
2018-12-27T22:38:35.780Z,9.00
2018-12-27T22:41:04.809Z,7.73
2018-12-27T22:43:37.540Z,7.73
2018-12-27T22:46:09.170Z,7.90
2018-12-27T22:48:38.603Z,8.30
2018-12-27T22:51:07.999Z,9.33
2018-12-27T22:53:37.347Z,7.83
2018-12-27T22:56:06.704Z,6.90
2018-12-27T22:58:35.989Z,7.40
2018-12-27T23:01:05.879Z,8.00
2018-12-27T23:03:35.190Z,7.97
2018-12-27T23:06:04.523Z,7.97
2018-12-27T23:08:33.979Z,8.37
2018-12-27T23:11:06.548Z,10.60
2018-12-27T23:13:36.181Z,8.93
2018-12-27T23:16:05.602Z,9.23
2018-12-27T23:18:35.090Z,10.07
2018-12-27T23:21:04.731Z,9.03
2018-12-27T23:23:34.120Z,9.40
2018-12-27T23:26:03.447Z,11.23
2018-12-27T23:28:32.963Z,7.77
2018-12-27T23:31:02.611Z,9.47
2018-12-27T23:33:32.016Z,8.77
2018-12-27T23:36:01.324Z,13.93
2018-12-27T23:38:30.699Z,12.83
2018-12-27T23:41:00.065Z,13.87
2018-12-27T23:43:29.440Z,15.53
2018-12-27T23:45:58.835Z,10.37
2018-12-27T23:48:28.239Z,9.93
2018-12-27T23:50:57.649Z,11.37
2018-12-27T23:53:27.007Z,12.63
2018-12-27T23:55:56.326Z,11.10
2018-12-27T23:58:25.656Z,9.40
